Time;durP1;ratioP1;P1;durP2;ratioP2;P2;SDS_P1;SDS_P2;PMS_P1;PMS_P2;Temp;Humidity;BMP_temperature;BMP_pressure;BME280_temperature;BME280_humidity;BME280_pressure;Samples;Min_cycle;Max_cycle;Signal;HPM_P1;HPM_P2
2024/01/10 00:01:59;;;;;;;3.08;2.05;;;21.20;43.80;;;;;;4978603;28;95449;-82
2024/01/10 00:04:25;;;;;;;2.15;1.90;;;21.10;43.80;;;;;;4958408;28;93100;-84
2024/01/10 00:06:51;;;;;;;3.03;2.05;;;21.10;43.80;;;;;;4961381;28;92714;-82
2024/01/10 00:09:16;;;;;;;2.00;1.50;;;21.10;43.80;;;;;;4959004;28;93015;-83
2024/01/10 00:11:42;;;;;;;2.00;1.60;;;21.10;43.90;;;;;;4981714;28;93151;-86
2024/01/10 00:14:07;;;;;;;2.47;1.60;;;21.10;43.80;;;;;;4981721;28;91272;-82
2024/01/10 00:16:33;;;;;;;2.13;1.73;;;21.00;43.80;;;;;;4981222;28;92513;-81
2024/01/10 00:18:59;;;;;;;2.35;1.73;;;21.00;43.70;;;;;;4969914;28;91252;-82
2024/01/10 00:21:25;;;;;;;2.22;1.80;;;21.00;43.80;;;;;;4964016;28;92666;-81
2024/01/10 00:23:50;;;;;;;2.53;1.70;;;21.00;43.70;;;;;;4959981;28;92465;-83
2024/01/10 00:26:16;;;;;;;4.32;1.98;;;20.90;43.60;;;;;;4961953;28;93868;-83
2024/01/10 00:28:42;;;;;;;2.35;1.80;;;20.90;43.80;;;;;;4960539;28;92660;-84
2024/01/10 00:31:08;;;;;;;2.22;1.80;;;20.90;43.80;;;;;;4954209;28;92560;-81
2024/01/10 00:33:34;;;;;;;2.22;1.65;;;20.80;43.80;;;;;;4955829;28;92676;-85
2024/01/10 00:36:00;;;;;;;2.13;1.73;;;20.80;43.90;;;;;;4956008;28;93100;-81
2024/01/10 00:38:25;;;;;;;2.10;1.77;;;20.80;43.80;;;;;;4955411;28;92632;-83
2024/01/10 00:40:51;;;;;;;1.95;1.77;;;20.80;44.30;;;;;;4954876;28;93101;-82
2024/01/10 00:43:17;;;;;;;2.95;2.05;;;20.70;43.70;;;;;;4955518;28;95384;-84
2024/01/10 00:45:42;;;;;;;2.10;1.70;;;20.70;43.70;;;;;;4954748;28;92752;-85
2024/01/10 00:48:08;;;;;;;2.25;1.70;;;20.70;43.70;;;;;;4952393;28;92440;-82
2024/01/10 00:50:33;;;;;;;2.08;1.77;;;20.70;44.00;;;;;;4951295;28;93603;-85
2024/01/10 00:52:59;;;;;;;1.48;1.38;;;20.70;43.80;;;;;;4952213;28;93115;-82
2024/01/10 00:55:24;;;;;;;2.25;1.67;;;20.60;43.80;;;;;;4954181;28;91999;-82
2024/01/10 00:57:50;;;;;;;2.53;1.70;;;20.60;43.80;;;;;;4951094;28;92709;-84
2024/01/10 01:00:16;;;;;;;2.65;2.05;;;20.60;43.80;;;;;;4955247;28;93406;-82
2024/01/10 01:02:42;;;;;;;2.15;1.95;;;20.60;44.00;;;;;;4950106;28;92609;-81
2024/01/10 01:05:08;;;;;;;2.25;1.77;;;20.60;44.00;;;;;;4951894;28;92654;-82
2024/01/10 01:07:34;;;;;;;2.17;1.65;;;20.50;44.00;;;;;;4954101;28;91962;-81
2024/01/10 01:09:59;;;;;;;2.40;1.67;;;20.50;44.00;;;;;;4950682;28;92555;-83
2024/01/10 01:12:25;;;;;;;3.75;1.90;;;20.50;44.00;;;;;;4948117;28;94420;-84
2024/01/10 01:14:51;;;;;;;2.33;1.80;;;20.50;44.10;;;;;;4954229;28;93391;-83
2024/01/10 01:17:17;;;;;;;2.97;1.85;;;20.50;44.20;;;;;;4951548;28;92629;-82
2024/01/10 01:19:42;;;;;;;1.67;1.55;;;20.50;43.90;;;;;;4950984;28;93942;-83
2024/01/10 01:22:08;;;;;;;2.15;1.83;;;20.50;44.00;;;;;;4952399;28;93767;-82
2024/01/10 01:24:34;;;;;;;2.55;1.92;;;20.50;44.10;;;;;;4949757;28;93668;-82
2024/01/10 01:26:59;;;;;;;3.85;1.58;;;20.40;44.10;;;;;;4954522;28;92696;-85
2024/01/10 01:29:25;;;;;;;3.55;1.95;;;20.40;44.60;;;;;;4953530;28;92936;-82
2024/01/10 01:31:52;;;;;;;2.15;1.60;;;20.40;44.10;;;;;;4951961;28;91703;-84
2024/01/10 01:34:18;;;;;;;2.20;1.52;;;20.40;44.00;;;;;;4947356;28;93076;-83
2024/01/10 01:36:43;;;;;;;2.15;1.58;;;20.30;44.00;;;;;;4952342;28;92539;-83
2024/01/10 01:39:09;;;;;;;1.60;1.48;;;20.30;44.10;;;;;;4951934;28;94043;-87
2024/01/10 01:41:34;;;;;;;2.70;2.13;;;20.30;43.80;;;;;;4948663;28;93139;-83
2024/01/10 01:44:00;;;;;;;3.72;1.95;;;20.30;44.00;;;;;;4956361;28;93103;-83
2024/01/10 01:46:26;;;;;;;1.73;1.52;;;20.30;44.10;;;;;;4952978;28;92402;-81
2024/01/10 01:48:52;;;;;;;2.65;2.13;;;20.20;44.00;;;;;;4946959;28;95613;-83
2024/01/10 01:51:20;;;;;;;1.63;1.33;;;20.20;44.10;;;;;;4937782;28;95271;-83
2024/01/10 01:53:48;;;;;;;2.45;1.90;;;20.20;44.00;;;;;;4952593;28;92691;-83
2024/01/10 01:56:14;;;;;;;2.67;1.77;;;20.10;44.10;;;;;;4953253;28;91994;-82
2024/01/10 01:58:40;;;;;;;1.98;1.48;;;20.20;44.20;;;;;;4953822;28;93771;-81
2024/01/10 02:01:07;;;;;;;2.90;2.05;;;20.20;44.10;;;;;;4952999;28;92466;-84
2024/01/10 02:03:32;;;;;;;2.05;1.80;;;20.10;44.00;;;;;;4955806;28;93402;-83
2024/01/10 02:06:03;;;;;;;3.15;1.80;;;20.10;44.10;;;;;;4953691;28;92896;-83
2024/01/10 02:08:33;;;;;;;2.10;1.85;;;20.10;43.90;;;;;;4952018;28;93443;-83
2024/01/10 02:10:59;;;;;;;2.03;1.45;;;20.10;44.00;;;;;;4954081;28;92808;-82
2024/01/10 02:13:25;;;;;;;2.13;1.80;;;20.10;44.10;;;;;;4953914;28;92800;-83
2024/01/10 02:15:51;;;;;;;2.70;2.00;;;20.10;44.20;;;;;;4953650;28;92822;-82
2024/01/10 02:18:17;;;;;;;2.05;1.85;;;20.10;44.10;;;;;;4953603;28;93121;-81
2024/01/10 02:20:44;;;;;;;2.22;1.90;;;20.00;44.20;;;;;;4951716;28;91697;-89
2024/01/10 02:23:11;;;;;;;2.25;1.85;;;20.00;44.00;;;;;;4950429;28;92475;-84
2024/01/10 02:25:37;;;;;;;1.85;1.60;;;20.00;44.20;;;;;;4954295;28;92888;-82
2024/01/10 02:28:03;;;;;;;2.50;2.05;;;19.90;44.10;;;;;;4951403;28;94089;-82
2024/01/10 02:30:29;;;;;;;2.75;2.25;;;19.90;44.10;;;;;;4953324;28;93682;-82
2024/01/10 02:32:54;;;;;;;2.22;1.70;;;20.00;44.10;;;;;;4953743;28;92983;-83
2024/01/10 02:35:20;;;;;;;2.72;1.88;;;19.90;44.20;;;;;;4949184;28;92178;-83
2024/01/10 02:37:46;;;;;;;2.00;1.80;;;19.90;44.00;;;;;;4950409;28;95869;-83
2024/01/10 02:40:11;;;;;;;3.67;1.75;;;19.90;44.10;;;;;;4950488;28;93212;-82
2024/01/10 02:42:39;;;;;;;2.08;1.63;;;19.90;44.20;;;;;;4951601;28;92457;-86
2024/01/10 02:45:05;;;;;;;2.95;1.88;;;19.90;44.10;;;;;;4952484;28;91634;-81
2024/01/10 02:47:31;;;;;;;2.05;1.50;;;19.80;44.30;;;;;;4952453;28;93073;-83
2024/01/10 02:49:56;;;;;;;2.17;1.83;;;19.80;44.20;;;;;;4953230;28;92262;-87
2024/01/10 02:52:22;;;;;;;2.28;1.65;;;19.80;44.10;;;;;;4954365;28;93286;-82
2024/01/10 02:54:48;;;;;;;2.90;2.00;;;19.80;44.10;;;;;;4954308;28;92693;-82
2024/01/10 02:57:13;;;;;;;2.25;1.83;;;19.80;43.90;;;;;;4953555;28;92659;-85
2024/01/10 02:59:39;;;;;;;2.60;1.80;;;19.80;44.00;;;;;;4950472;28;92759;-84
2024/01/10 03:02:05;;;;;;;3.17;2.25;;;19.70;44.00;;;;;;4950936;28;92699;-85
2024/01/10 03:04:30;;;;;;;1.90;1.75;;;19.70;44.00;;;;;;4954028;28;92582;-81
2024/01/10 03:06:56;;;;;;;2.53;1.90;;;19.70;44.10;;;;;;4953811;28;93248;-81
2024/01/10 03:09:23;;;;;;;2.08;1.63;;;19.70;44.20;;;;;;4955758;28;91960;-84
2024/01/10 03:11:48;;;;;;;3.25;2.08;;;19.70;44.20;;;;;;4952449;28;92654;-81
2024/01/10 03:14:14;;;;;;;2.30;2.05;;;19.60;44.10;;;;;;4955571;28;92846;-84
2024/01/10 03:16:40;;;;;;;3.53;1.88;;;19.70;44.10;;;;;;4954400;28;96344;-84
2024/01/10 03:19:05;;;;;;;3.53;2.10;;;19.60;44.10;;;;;;4951287;28;93228;-86
2024/01/10 03:21:31;;;;;;;2.20;1.52;;;19.60;44.20;;;;;;4952519;28;92902;-83
2024/01/10 03:23:57;;;;;;;2.92;1.75;;;19.60;44.20;;;;;;4951286;28;92154;-86
2024/01/10 03:26:24;;;;;;;2.50;2.05;;;19.60;44.20;;;;;;4951170;28;95159;-88
2024/01/10 03:28:50;;;;;;;2.75;2.20;;;19.60;44.20;;;;;;4951561;28;93551;-82
2024/01/10 03:31:16;;;;;;;2.38;1.73;;;19.60;44.10;;;;;;4951041;28;92325;-81
2024/01/10 03:33:42;;;;;;;2.45;1.73;;;19.60;44.20;;;;;;4951343;28;91589;-83
2024/01/10 03:36:11;;;;;;;2.38;1.67;;;19.50;44.10;;;;;;4955280;28;94193;-81
2024/01/10 03:38:37;;;;;;;2.10;1.55;;;19.60;44.20;;;;;;4952146;28;93616;-84
2024/01/10 03:41:03;;;;;;;2.20;1.60;;;19.50;44.00;;;;;;4952079;28;93928;-81
2024/01/10 03:43:29;;;;;;;2.53;1.85;;;19.50;44.00;;;;;;4952988;28;92444;-81
2024/01/10 03:45:54;;;;;;;2.33;2.08;;;19.50;44.20;;;;;;4955401;28;93349;-81
2024/01/10 03:48:20;;;;;;;2.10;1.80;;;19.50;44.20;;;;;;4952998;28;92812;-83
2024/01/10 03:50:46;;;;;;;2.15;1.77;;;19.50;44.00;;;;;;4953563;28;92167;-81
2024/01/10 03:53:12;;;;;;;2.67;1.92;;;19.50;44.20;;;;;;4951748;28;92879;-86
2024/01/10 03:55:38;;;;;;;2.58;2.00;;;19.40;44.20;;;;;;4951922;28;93221;-80
2024/01/10 03:58:05;;;;;;;2.28;1.63;;;19.40;44.20;;;;;;4950411;28;92851;-82
2024/01/10 04:00:30;;;;;;;2.10;1.73;;;19.40;44.20;;;;;;4952738;28;92844;-82
2024/01/10 04:02:56;;;;;;;2.72;1.90;;;19.40;44.10;;;;;;4956624;28;92776;-80
2024/01/10 04:05:24;;;;;;;2.00;1.80;;;19.40;44.10;;;;;;4953171;28;94144;-82
2024/01/10 04:07:50;;;;;;;2.20;1.90;;;19.40;44.00;;;;;;4958751;28;93101;-81
2024/01/10 04:10:15;;;;;;;2.60;1.95;;;19.40;44.00;;;;;;4953821;28;93116;-82
2024/01/10 04:12:42;;;;;;;2.47;1.98;;;19.40;44.00;;;;;;4952270;28;92882;-80
2024/01/10 04:15:08;;;;;;;2.13;1.83;;;19.40;44.10;;;;;;4956003;28;93777;-84
2024/01/10 04:17:34;;;;;;;2.33;2.03;;;19.30;44.00;;;;;;4952753;28;94634;-81
2024/01/10 04:19:59;;;;;;;2.13;1.90;;;19.30;44.00;;;;;;4953834;28;92720;-81
2024/01/10 04:22:25;;;;;;;3.38;1.48;;;19.30;44.00;;;;;;4954457;28;92304;-82
2024/01/10 04:24:51;;;;;;;1.52;1.40;;;19.30;44.00;;;;;;4955788;28;93048;-81
2024/01/10 04:27:20;;;;;;;2.53;2.00;;;19.30;44.10;;;;;;4953723;28;92529;-84
2024/01/10 04:29:46;;;;;;;2.20;1.73;;;19.30;44.20;;;;;;4954876;28;93015;-81
2024/01/10 04:32:11;;;;;;;2.60;2.00;;;19.30;44.00;;;;;;4954905;28;92449;-84
2024/01/10 04:34:37;;;;;;;3.65;2.00;;;19.30;44.10;;;;;;4954689;28;95840;-81
2024/01/10 04:37:03;;;;;;;2.53;1.80;;;19.20;44.00;;;;;;4955414;28;92813;-83
2024/01/10 04:39:29;;;;;;;2.95;2.08;;;19.20;44.00;;;;;;4953390;28;92183;-84
2024/01/10 04:41:55;;;;;;;2.42;1.88;;;19.20;43.80;;;;;;4958216;28;93096;-82
2024/01/10 04:44:20;;;;;;;2.33;1.85;;;19.20;44.00;;;;;;4953215;28;93643;-82
2024/01/10 04:46:46;;;;;;;1.90;1.70;;;19.20;44.00;;;;;;4957772;28;92751;-81
2024/01/10 04:49:12;;;;;;;2.38;1.88;;;19.20;44.20;;;;;;4956041;28;92337;-81
2024/01/10 04:51:37;;;;;;;2.30;1.88;;;19.20;44.20;;;;;;4958370;28;91989;-85
2024/01/10 04:54:03;;;;;;;2.70;2.15;;;19.20;44.30;;;;;;4955435;28;94104;-81
2024/01/10 04:56:29;;;;;;;2.85;2.00;;;19.10;44.10;;;;;;4957434;28;94950;-81
2024/01/10 04:58:54;;;;;;;2.53;1.80;;;19.20;44.20;;;;;;4955980;28;92244;-82
2024/01/10 05:01:20;;;;;;;2.30;2.00;;;19.10;44.10;;;;;;4955970;28;92851;-81
2024/01/10 05:03:46;;;;;;;3.63;2.05;;;19.10;44.00;;;;;;4955899;28;92299;-83
2024/01/10 05:06:11;;;;;;;1.92;1.73;;;19.10;44.10;;;;;;4955074;28;92623;-81
2024/01/10 05:08:37;;;;;;;2.30;1.80;;;19.10;44.00;;;;;;4955006;28;93175;-81
2024/01/10 05:11:03;;;;;;;2.65;1.90;;;19.10;44.10;;;;;;4956736;28;91845;-82
2024/01/10 05:13:29;;;;;;;2.28;1.92;;;19.10;44.10;;;;;;4955068;28;93116;-81
2024/01/10 05:15:54;;;;;;;2.35;1.92;;;19.00;43.90;;;;;;4955798;28;92956;-82
2024/01/10 05:18:21;;;;;;;2.47;2.00;;;19.10;44.00;;;;;;4953098;28;93860;-83
2024/01/10 05:20:47;;;;;;;2.50;1.90;;;19.10;44.00;;;;;;4956939;28;92709;-81
2024/01/10 05:23:13;;;;;;;1.75;1.65;;;19.10;43.90;;;;;;4953961;28;93193;-83
2024/01/10 05:25:39;;;;;;;2.33;2.00;;;19.00;44.00;;;;;;4954064;28;93185;-81
2024/01/10 05:28:06;;;;;;;2.00;1.80;;;19.10;44.20;;;;;;4956376;28;92857;-81
2024/01/10 05:30:32;;;;;;;2.17;1.67;;;19.00;44.20;;;;;;4954056;28;93023;-81
2024/01/10 05:33:00;;;;;;;2.92;1.88;;;19.00;44.20;;;;;;4955537;28;93590;-81
2024/01/10 05:35:26;;;;;;;3.85;1.98;;;19.00;44.20;;;;;;4953300;28;92171;-82
2024/01/10 05:37:52;;;;;;;2.00;1.80;;;19.10;44.10;;;;;;4953910;28;93016;-82
2024/01/10 05:40:18;;;;;;;2.95;1.88;;;19.00;44.10;;;;;;4950542;28;92811;-81
2024/01/10 05:42:44;;;;;;;2.15;1.95;;;19.00;44.00;;;;;;4949667;28;93856;-81
2024/01/10 05:45:10;;;;;;;2.05;1.77;;;19.00;44.10;;;;;;4953078;28;94148;-84
2024/01/10 05:47:36;;;;;;;2.20;1.83;;;19.00;44.10;;;;;;4952383;28;92662;-82
2024/01/10 05:50:06;;;;;;;2.08;1.83;;;19.00;43.90;;;;;;4954710;28;92601;-83
2024/01/10 05:52:33;;;;;;;2.55;2.10;;;19.00;44.00;;;;;;4957813;28;93523;-84
2024/01/10 05:54:59;;;;;;;2.38;1.92;;;19.00;43.90;;;;;;4956528;28;92786;-83
2024/01/10 05:57:24;;;;;;;2.33;1.88;;;19.00;44.00;;;;;;4954091;28;92869;-83
2024/01/10 05:59:52;;;;;;;2.00;1.67;;;19.00;43.90;;;;;;4963533;28;91772;-80
2024/01/10 06:02:18;;;;;;;2.25;1.58;;;19.00;43.90;;;;;;4962865;28;93167;-83
2024/01/10 06:04:43;;;;;;;2.38;2.03;;;19.00;43.80;;;;;;4961762;28;92058;-81
2024/01/10 06:07:09;;;;;;;2.28;1.80;;;19.00;44.00;;;;;;4959854;28;93603;-83
2024/01/10 06:09:35;;;;;;;2.05;1.75;;;19.00;44.20;;;;;;4957536;28;92897;-81
2024/01/10 06:12:00;;;;;;;2.75;2.00;;;19.00;44.10;;;;;;4957095;28;94111;-82
2024/01/10 06:14:26;;;;;;;2.78;1.90;;;19.00;44.20;;;;;;4953781;28;93467;-81
2024/01/10 06:16:51;;;;;;;2.80;1.83;;;19.00;44.10;;;;;;4954214;28;91989;-80
2024/01/10 06:19:18;;;;;;;2.00;1.80;;;19.00;44.00;;;;;;4954476;28;93001;-80
2024/01/10 06:21:44;;;;;;;1.98;1.70;;;19.00;44.00;;;;;;4954519;28;93468;-81
2024/01/10 06:24:09;;;;;;;1.95;1.73;;;19.00;44.00;;;;;;4956949;28;95104;-81
2024/01/10 06:26:35;;;;;;;1.83;1.58;;;18.90;44.00;;;;;;4952706;28;92332;-81
2024/01/10 06:29:01;;;;;;;1.90;1.70;;;18.90;44.00;;;;;;4955275;28;92809;-81
2024/01/10 06:31:26;;;;;;;2.90;1.90;;;19.00;44.10;;;;;;4952394;28;95146;-81
2024/01/10 06:33:52;;;;;;;1.92;1.70;;;18.90;43.90;;;;;;4954727;28;93142;-82
2024/01/10 06:36:18;;;;;;;2.80;1.92;;;18.90;44.70;;;;;;4957950;28;92045;-81
2024/01/10 06:38:43;;;;;;;3.10;1.98;;;18.90;43.90;;;;;;4954381;28;93088;-85
2024/01/10 06:41:10;;;;;;;1.88;1.70;;;18.90;44.00;;;;;;4955365;28;93761;-81
2024/01/10 06:43:38;;;;;;;2.00;1.70;;;18.90;43.80;;;;;;4953160;28;92775;-81
2024/01/10 06:46:04;;;;;;;2.55;1.83;;;18.90;43.90;;;;;;4954386;28;92252;-81
2024/01/10 06:48:31;;;;;;;2.53;2.13;;;18.90;43.60;;;;;;4955780;28;91775;-82
2024/01/10 06:50:57;;;;;;;1.90;1.70;;;18.90;43.70;;;;;;4955846;28;92524;-84
2024/01/10 06:53:23;;;;;;;1.90;1.73;;;18.90;43.70;;;;;;4956349;28;93405;-80
2024/01/10 06:55:48;;;;;;;2.20;1.60;;;18.90;43.60;;;;;;4952229;28;93651;-83
2024/01/10 06:58:14;;;;;;;2.10;1.90;;;18.90;43.80;;;;;;4951055;28;92958;-81
2024/01/10 07:00:40;;;;;;;1.98;1.70;;;18.90;43.70;;;;;;4952003;28;92394;-81
2024/01/10 07:03:05;;;;;;;4.18;2.13;;;18.90;43.80;;;;;;4959862;28;93221;-82
2024/01/10 07:05:31;;;;;;;2.00;1.80;;;18.90;43.80;;;;;;4957724;28;92194;-81
2024/01/10 07:07:58;;;;;;;1.65;1.50;;;18.90;43.70;;;;;;4964843;28;92907;-84
2024/01/10 07:10:28;;;;;;;2.40;2.00;;;18.90;43.50;;;;;;4966482;28;92614;-83
2024/01/10 07:12:54;;;;;;;;;;;18.80;43.40;;;;;;4958739;28;92258;-81
2024/01/10 07:15:20;;;;;;;2.08;1.80;;;18.80;43.50;;;;;;4967270;28;92552;-85
2024/01/10 07:17:46;;;;;;;2.20;1.90;;;18.90;43.50;;;;;;4953260;28;92673;-84
2024/01/10 07:20:12;;;;;;;2.33;1.88;;;18.80;43.60;;;;;;4954280;28;93821;-81
2024/01/10 07:22:41;;;;;;;2.30;1.80;;;18.80;43.40;;;;;;4952768;28;94839;-81
2024/01/10 07:25:13;;;;;;;2.05;1.85;;;18.80;43.50;;;;;;4957303;28;92696;-80
2024/01/10 07:27:40;;;;;;;2.90;2.15;;;18.90;43.70;;;;;;4961027;28;92313;-86
2024/01/10 07:30:15;;;;;;;2.30;1.77;;;18.90;42.60;;;;;;4978988;28;94879;-83
2024/01/10 07:32:43;;;;;;;2.35;2.13;;;18.90;42.90;;;;;;4978529;28;91716;-79
2024/01/10 07:35:10;;;;;;;3.35;1.88;;;18.90;43.10;;;;;;4980363;28;91672;-80
2024/01/10 07:37:41;;;;;;;2.28;2.05;;;18.90;43.00;;;;;;4976476;28;91440;-82
2024/01/10 07:40:08;;;;;;;3.78;2.30;;;18.90;43.10;;;;;;4965075;28;92817;-84
2024/01/10 07:42:34;;;;;;;3.05;2.10;;;18.90;43.00;;;;;;4959222;28;92558;-81
2024/01/10 07:45:04;;;;;;;2.75;1.98;;;18.90;42.50;;;;;;4959743;28;93381;-85
2024/01/10 07:47:31;;;;;;;;;;;19.00;42.60;;;;;;4955525;28;92636;-83
2024/01/10 07:49:57;;;;;;;3.45;2.42;;;19.00;43.10;;;;;;4955552;28;93227;-84
2024/01/10 07:52:22;;;;;;;2.80;1.92;;;19.10;43.40;;;;;;4955410;28;93540;-84
2024/01/10 07:54:48;;;;;;;3.72;2.22;;;19.00;43.30;;;;;;4954722;28;92565;-83
2024/01/10 07:57:14;;;;;;;4.28;1.80;;;19.10;43.50;;;;;;4955178;28;93577;-82
2024/01/10 07:59:39;;;;;;;2.42;1.65;;;19.10;43.80;;;;;;4951563;28;93981;-82
2024/01/10 08:02:05;;;;;;;3.45;2.30;;;19.20;44.00;;;;;;4950803;28;93653;-83
2024/01/10 08:04:31;;;;;;;6.22;1.80;;;19.20;44.20;;;;;;4954973;28;92035;-80
2024/01/10 08:06:57;;;;;;;2.40;1.92;;;19.20;44.10;;;;;;4955917;28;93484;-80
2024/01/10 08:09:24;;;;;;;3.13;2.30;;;19.20;44.10;;;;;;4953702;28;93601;-79
2024/01/10 08:11:50;;;;;;;3.40;2.20;;;19.30;44.30;;;;;;4953792;28;97991;-80
2024/01/10 08:14:16;;;;;;;2.70;2.10;;;19.30;44.30;;;;;;4951956;28;92602;-81
2024/01/10 08:16:42;;;;;;;3.58;2.20;;;19.30;44.20;;;;;;4950688;28;94008;-80
2024/01/10 08:19:08;;;;;;;2.22;1.95;;;19.30;44.20;;;;;;4951664;28;93304;-81
2024/01/10 08:21:34;;;;;;;3.47;2.05;;;19.40;44.10;;;;;;4950304;28;92671;-81
2024/01/10 08:24:01;;;;;;;2.13;1.90;;;19.40;44.20;;;;;;4955434;28;92682;-80
2024/01/10 08:26:27;;;;;;;4.05;1.95;;;19.30;44.10;;;;;;4953125;28;92092;-86
2024/01/10 08:28:52;;;;;;;3.33;2.35;;;19.30;44.20;;;;;;4951727;28;94073;-79
2024/01/10 08:31:18;;;;;;;2.70;2.00;;;19.40;44.30;;;;;;4948605;28;93130;-82
2024/01/10 08:33:45;;;;;;;2.60;1.95;;;19.40;44.20;;;;;;4951730;28;93589;-80
2024/01/10 08:36:12;;;;;;;2.40;2.00;;;19.40;44.20;;;;;;4952557;28;93120;-78
2024/01/10 08:38:38;;;;;;;2.17;1.98;;;19.40;44.10;;;;;;4950037;28;92988;-82
2024/01/10 08:41:04;;;;;;;2.72;2.10;;;19.40;44.20;;;;;;4950794;28;92422;-81
2024/01/10 08:43:30;;;;;;;2.92;2.35;;;19.40;44.20;;;;;;4949072;28;92411;-83
2024/01/10 08:45:57;;;;;;;2.60;2.05;;;19.40;44.20;;;;;;4951489;28;92343;-82
2024/01/10 08:48:24;;;;;;;3.53;2.30;;;19.40;44.20;;;;;;4947838;28;93211;-80
2024/01/10 08:50:50;;;;;;;3.30;1.88;;;19.30;44.10;;;;;;4947282;28;99423;-82
2024/01/10 08:53:16;;;;;;;2.50;1.80;;;19.30;44.40;;;;;;4952296;28;92800;-80
2024/01/10 08:55:42;;;;;;;3.03;2.30;;;19.40;44.40;;;;;;4955643;28;92615;-80
2024/01/10 08:58:08;;;;;;;3.63;2.08;;;19.30;44.30;;;;;;4952598;28;94149;-81
2024/01/10 09:00:34;;;;;;;10.45;3.17;;;19.30;44.30;;;;;;4952824;28;93224;-81
2024/01/10 09:03:00;;;;;;;15.07;3.95;;;19.40;44.40;;;;;;4946306;28;93450;-81
2024/01/10 09:05:26;;;;;;;6.13;2.42;;;19.30;43.50;;;;;;4951700;28;92451;-80
2024/01/10 09:07:53;;;;;;;7.60;2.90;;;19.40;44.30;;;;;;4951822;28;92472;-80
2024/01/10 09:10:21;;;;;;;6.15;3.05;;;19.40;44.50;;;;;;4951857;28;93392;-82
2024/01/10 09:12:47;;;;;;;14.05;3.45;;;19.40;44.30;;;;;;4950607;28;92593;-80
2024/01/10 09:15:14;;;;;;;4.95;2.67;;;19.50;44.20;;;;;;4950505;28;91740;-80
2024/01/10 09:17:41;;;;;;;8.63;3.55;;;19.60;43.90;;;;;;4950839;28;95347;-82
2024/01/10 09:20:08;;;;;;;8.68;2.92;;;19.80;43.70;;;;;;4952079;28;92689;-81
2024/01/10 09:22:34;;;;;;;6.35;2.63;;;20.00;43.40;;;;;;4954258;28;94855;-80
2024/01/10 09:25:03;;;;;;;6.57;2.70;;;20.10;43.40;;;;;;4952355;28;93575;-85
2024/01/10 09:27:30;;;;;;;11.10;3.47;;;20.20;43.10;;;;;;4946090;28;93069;-80
2024/01/10 09:29:56;;;;;;;10.32;3.45;;;20.30;42.70;;;;;;4948806;28;93057;-84
2024/01/10 09:32:22;;;;;;;6.32;3.05;;;20.40;42.50;;;;;;4950263;28;93149;-84
2024/01/10 09:34:47;;;;;;;9.13;3.45;;;20.50;42.20;;;;;;4948074;28;92433;-80
2024/01/10 09:37:13;;;;;;;13.23;3.40;;;20.60;42.10;;;;;;4950429;28;93549;-82
2024/01/10 09:39:39;;;;;;;6.72;2.53;;;20.60;42.10;;;;;;4950300;28;92339;-82
2024/01/10 09:42:06;;;;;;;7.75;3.28;;;20.60;42.20;;;;;;4951836;28;92507;-84
2024/01/10 09:44:33;;;;;;;11.35;3.85;;;20.70;42.00;;;;;;4954017;28;93596;-83
2024/01/10 09:47:00;;;;;;;12.07;4.20;;;20.70;41.90;;;;;;4945804;28;93496;-85
2024/01/10 09:49:26;;;;;;;7.32;3.50;;;20.70;41.20;;;;;;4952709;28;92953;-80
2024/01/10 09:52:01;;;;;;;16.30;4.60;;;20.80;41.20;;;;;;4948560;28;91997;-81
2024/01/10 09:54:30;;;;;;;11.18;3.80;;;20.80;41.20;;;;;;4949695;28;92836;-80
2024/01/10 09:56:57;;;;;;;14.57;4.05;;;20.80;40.90;;;;;;4951369;28;92558;-81
2024/01/10 09:59:23;;;;;;;13.73;3.92;;;20.90;40.80;;;;;;4947884;28;92888;-81
2024/01/10 10:01:51;;;;;;;15.10;4.20;;;21.00;40.70;;;;;;4950516;28;92796;-82
2024/01/10 10:04:19;;;;;;;9.15;3.70;;;21.10;40.60;;;;;;4950261;28;91668;-82
2024/01/10 10:06:45;;;;;;;10.95;4.15;;;21.20;40.60;;;;;;4953714;28;92755;-84
2024/01/10 10:09:12;;;;;;;14.77;4.05;;;21.20;40.00;;;;;;4951322;28;92561;-82
2024/01/10 10:11:38;;;;;;;13.32;4.07;;;21.20;40.10;;;;;;4949014;28;94228;-81
2024/01/10 10:14:18;;;;;;;13.43;4.03;;;21.30;40.00;;;;;;4953776;28;92616;-84
2024/01/10 10:16:44;;;;;;;13.73;3.88;;;21.40;40.10;;;;;;4948572;28;93272;-82
2024/01/10 10:19:11;;;;;;;11.38;4.28;;;21.40;40.30;;;;;;4949662;28;93962;-82
2024/01/10 10:21:37;;;;;;;9.95;4.18;;;21.40;40.10;;;;;;4947790;28;93137;-81
2024/01/10 10:24:03;;;;;;;11.35;4.00;;;21.50;39.90;;;;;;4949493;28;92498;-80
2024/01/10 10:26:32;;;;;;;9.10;4.47;;;21.50;38.80;;;;;;4953378;28;93910;-81
2024/01/10 10:28:59;;;;;;;9.93;3.97;;;21.50;38.60;;;;;;4953567;28;92417;-80
2024/01/10 10:31:25;;;;;;;10.13;3.83;;;21.50;38.60;;;;;;4941395;28;92819;-81
2024/01/10 10:33:51;;;;;;;10.90;4.00;;;21.50;39.10;;;;;;4952541;28;92535;-80
2024/01/10 10:36:20;;;;;;;9.25;4.20;;;21.50;39.10;;;;;;4948497;28;93872;-81
2024/01/10 10:38:49;;;;;;;11.60;4.28;;;21.50;38.80;;;;;;4950882;28;92700;-84
2024/01/10 10:41:15;;;;;;;8.27;4.27;;;21.50;38.90;;;;;;4950876;28;93714;-83
2024/01/10 10:43:42;;;;;;;7.95;3.92;;;21.50;38.60;;;;;;4947272;28;93088;-80
2024/01/10 10:46:12;;;;;;;9.85;4.43;;;21.50;38.90;;;;;;4950053;28;93364;-80
2024/01/10 10:48:38;;;;;;;10.73;4.45;;;21.50;38.80;;;;;;4948803;28;92909;-83
2024/01/10 10:51:15;;;;;;;7.00;3.28;;;21.50;39.00;;;;;;4952335;28;92695;-83
2024/01/10 10:53:45;;;;;;;8.95;4.25;;;21.50;38.80;;;;;;4952585;28;92369;-82
2024/01/10 10:56:12;;;;;;;6.65;3.53;;;21.60;39.00;;;;;;4952156;28;93275;-82
2024/01/10 10:58:40;;;;;;;10.75;3.92;;;21.60;39.60;;;;;;4949503;28;92508;-84
2024/01/10 11:01:07;;;;;;;7.80;4.43;;;21.50;39.40;;;;;;4950237;28;94155;-81
2024/01/10 11:03:39;;;;;;;8.55;3.40;;;21.40;38.90;;;;;;4947454;28;92760;-80
2024/01/10 11:06:06;;;;;;;10.35;4.00;;;21.30;39.00;;;;;;4948912;28;93129;-81
2024/01/10 11:08:38;;;;;;;8.27;3.70;;;21.30;39.00;;;;;;4953377;28;93015;-84
2024/01/10 11:11:12;;;;;;;10.20;3.95;;;21.30;39.30;;;;;;4956202;28;92541;-81
2024/01/10 11:13:53;;;;;;;7.22;3.70;;;21.30;39.90;;;;;;4954040;28;93862;-81
2024/01/10 11:16:43;;;;;;;7.63;3.72;;;21.20;40.30;;;;;;4950427;28;93018;-80
2024/01/10 11:19:31;;;;;;;9.85;4.57;;;21.20;40.80;;;;;;4943513;28;92610;-81
2024/01/10 11:22:28;;;;;;;9.75;3.65;;;21.30;41.00;;;;;;4962986;28;92492;-86
2024/01/10 11:24:55;;;;;;;5.75;3.13;;;21.30;41.00;;;;;;4951947;28;92175;-80
2024/01/10 11:27:21;;;;;;;9.65;4.10;;;21.30;41.20;;;;;;4951493;28;94819;-80
2024/01/10 11:29:47;;;;;;;10.88;3.78;;;21.30;41.60;;;;;;4955226;28;93145;-84
2024/01/10 11:32:17;;;;;;;7.40;3.63;;;21.30;41.90;;;;;;4954761;28;92495;-80
2024/01/10 11:35:18;;;;;;;7.88;3.60;;;21.30;41.00;;;;;;4954106;28;93132;-81
2024/01/10 11:37:46;;;;;;;8.30;3.80;;;21.30;40.60;;;;;;4953692;28;94852;-85
2024/01/10 11:40:15;;;;;;;9.63;4.28;;;21.30;41.00;;;;;;4952468;28;93051;-81
2024/01/10 11:42:45;;;;;;;;;;;21.30;41.40;;;;;;4951473;28;92747;-82
2024/01/10 11:45:31;;;;;;;7.82;3.67;;;21.30;41.80;;;;;;4958782;28;92808;-87
2024/01/10 11:48:00;;;;;;;12.00;4.05;;;21.40;41.70;;;;;;4952077;28;97005;-80
2024/01/10 11:50:27;;;;;;;;;;;21.40;42.10;;;;;;4951574;28;94726;-81
2024/01/10 11:52:55;;;;;;;6.15;3.00;;;21.40;42.30;;;;;;4953887;28;93250;-81
2024/01/10 11:55:52;;;;;;;8.95;3.78;;;21.40;42.20;;;;;;4954168;28;92776;-80
2024/01/10 11:58:18;;;;;;;6.03;3.22;;;21.40;42.60;;;;;;4955771;28;93330;-81
2024/01/10 12:00:44;;;;;;;8.60;3.83;;;21.40;42.60;;;;;;4953226;28;92984;-80
2024/01/10 12:03:11;;;;;;;7.28;3.28;;;21.50;42.10;;;;;;4952572;28;92958;-82
2024/01/10 12:05:38;;;;;;;5.07;2.80;;;21.50;42.60;;;;;;4950385;28;92717;-80
2024/01/10 12:08:08;;;;;;;6.60;2.85;;;21.50;42.90;;;;;;4952647;28;93140;-82
2024/01/10 12:10:36;;;;;;;6.32;3.00;;;21.50;42.60;;;;;;4950139;28;94208;-81
2024/01/10 12:13:03;;;;;;;7.55;3.10;;;21.50;42.70;;;;;;4952835;28;92651;-81
2024/01/10 12:15:29;;;;;;;6.28;3.05;;;21.50;42.70;;;;;;4952701;28;92927;-82
2024/01/10 12:17:55;;;;;;;4.72;2.63;;;21.50;42.80;;;;;;4948954;28;94179;-80
2024/01/10 12:20:21;;;;;;;5.93;2.75;;;21.50;43.00;;;;;;4953827;28;93345;-84
2024/01/10 12:22:47;;;;;;;6.00;2.97;;;21.50;42.90;;;;;;4952500;28;92753;-79
2024/01/10 12:25:13;;;;;;;10.43;3.00;;;21.50;42.40;;;;;;4951773;28;93274;-79
2024/01/10 12:27:38;;;;;;;6.15;2.70;;;21.50;42.60;;;;;;4950095;28;92527;-79
2024/01/10 12:30:05;;;;;;;7.22;3.05;;;21.50;42.80;;;;;;4949296;28;93047;-80
2024/01/10 12:32:31;;;;;;;7.20;3.22;;;21.50;42.90;;;;;;4950291;28;92310;-82
2024/01/10 12:35:04;;;;;;;7.68;3.28;;;21.50;42.90;;;;;;4954706;28;92252;-81
2024/01/10 12:37:31;;;;;;;5.20;2.92;;;21.60;43.10;;;;;;4949702;28;93783;-80
2024/01/10 12:39:57;;;;;;;6.57;2.80;;;21.60;43.20;;;;;;4951771;28;92994;-83
2024/01/10 12:42:23;;;;;;;5.72;3.10;;;21.60;43.40;;;;;;4949280;28;93940;-81
2024/01/10 12:44:49;;;;;;;6.13;2.72;;;21.60;43.40;;;;;;4961259;28;92883;-82
2024/01/10 12:47:19;;;;;;;4.85;2.80;;;21.60;43.30;;;;;;4960031;28;92165;-81